createdAt,value
2022-12-29T00:02:26.493Z,4.78
2022-12-29T00:04:54.658Z,5.40
2022-12-29T00:07:30.164Z,5.63
2022-12-29T00:09:58.059Z,5.53
2022-12-29T00:12:25.936Z,5.90
2022-12-29T00:15:12.220Z,5.97
2022-12-29T00:17:40.108Z,5.10
2022-12-29T00:20:28.937Z,4.20
2022-12-29T00:23:15.114Z,4.45
2022-12-29T00:26:03.346Z,6.53
2022-12-29T00:28:49.948Z,4.68
2022-12-29T00:31:36.170Z,3.58
2022-12-29T00:34:23.196Z,2.95
2022-12-29T00:36:55.497Z,3.13
2022-12-29T00:39:47.520Z,4.27
2022-12-29T00:42:33.753Z,2.95
2022-12-29T00:45:04.606Z,6.20
2022-12-29T00:47:32.781Z,7.20
2022-12-29T00:50:00.658Z,7.03
2022-12-29T00:52:29.031Z,3.45
2022-12-29T00:54:57.044Z,3.78
2022-12-29T00:57:27.521Z,4.10
2022-12-29T00:59:55.483Z,4.43
2022-12-29T01:02:23.273Z,3.75
2022-12-29T01:04:51.074Z,5.38
2022-12-29T01:07:19.313Z,3.97
2022-12-29T01:10:07.901Z,4.93
2022-12-29T01:12:43.249Z,5.72
2022-12-29T01:15:14.239Z,6.50
2022-12-29T01:17:46.102Z,4.78
2022-12-29T01:20:14.360Z,5.88
2022-12-29T01:22:46.392Z,4.10
2022-12-29T01:25:14.113Z,6.43
2022-12-29T01:27:42.181Z,4.18
2022-12-29T01:30:18.360Z,4.93
2022-12-29T01:32:51.602Z,5.15
2022-12-29T01:35:36.838Z,4.32
2022-12-29T01:38:07.657Z,6.85
2022-12-29T01:40:44.670Z,5.03
2022-12-29T01:43:18.441Z,5.00
2022-12-29T01:45:51.653Z,5.25
2022-12-29T01:48:22.086Z,4.13
2022-12-29T01:50:54.725Z,3.00
2022-12-29T01:53:34.068Z,6.07
2022-12-29T01:56:12.431Z,4.65
2022-12-29T01:58:44.657Z,5.10
2022-12-29T02:01:17.556Z,3.55
2022-12-29T02:03:57.081Z,4.50
2022-12-29T02:06:39.746Z,4.18
2022-12-29T02:09:10.357Z,4.87
2022-12-29T02:11:47.345Z,5.25
2022-12-29T02:14:18.141Z,5.60
2022-12-29T02:16:48.569Z,3.90
2022-12-29T02:20:00.276Z,5.28
2022-12-29T02:23:05.655Z,5.55
2022-12-29T02:26:00.946Z,5.55
2022-12-29T02:29:21.100Z,5.22
2022-12-29T02:32:22.612Z,4.95
2022-12-29T02:35:26.619Z,4.57
2022-12-29T02:38:21.951Z,5.63
2022-12-29T02:40:59.255Z,5.57
2022-12-29T02:43:57.642Z,7.53
2022-12-29T02:46:29.010Z,5.68
2022-12-29T02:49:23.318Z,6.20
2022-12-29T02:52:20.509Z,8.40
2022-12-29T02:54:53.658Z,5.95
2022-12-29T02:57:24.556Z,6.00
2022-12-29T03:00:18.197Z,3.80
2022-12-29T03:02:53.030Z,5.25
2022-12-29T03:05:39.158Z,6.13
2022-12-29T03:08:22.452Z,6.80
2022-12-29T03:10:56.342Z,4.95
2022-12-29T03:13:56.622Z,7.57
2022-12-29T03:16:36.101Z,6.50
2022-12-29T03:19:36.645Z,7.75
2022-12-29T03:22:32.720Z,4.53
2022-12-29T03:25:30.686Z,7.90
2022-12-29T03:28:11.071Z,6.25
2022-12-29T03:30:46.081Z,7.15
2022-12-29T03:33:28.266Z,5.25
2022-12-29T03:36:13.939Z,5.05
2022-12-29T03:38:50.155Z,6.32
2022-12-29T03:41:24.411Z,7.22
2022-12-29T03:43:56.731Z,6.28
2022-12-29T03:46:27.340Z,6.43
2022-12-29T03:48:55.209Z,5.32
2022-12-29T03:51:23.166Z,4.70
2022-12-29T03:53:50.990Z,4.15
2022-12-29T03:56:23.669Z,5.18
2022-12-29T03:58:52.106Z,6.80
2022-12-29T04:01:26.856Z,4.80
2022-12-29T04:03:54.683Z,5.35
2022-12-29T04:06:22.416Z,5.95
2022-12-29T04:09:01.700Z,4.60
2022-12-29T04:11:33.537Z,6.32
2022-12-29T04:14:15.457Z,5.38
2022-12-29T04:19:28.908Z,6.45
2022-12-29T04:21:58.956Z,4.88
2022-12-29T04:24:26.766Z,4.93
2022-12-29T04:26:55.543Z,5.32
2022-12-29T04:29:31.748Z,4.38
2022-12-29T04:32:35.325Z,4.50
2022-12-29T04:35:03.498Z,7.15
2022-12-29T04:37:31.818Z,5.43
2022-12-29T04:40:02.648Z,5.03
2022-12-29T04:42:33.889Z,5.28
2022-12-29T04:47:47.035Z,6.20
2022-12-29T04:50:36.072Z,6.65
2022-12-29T04:53:29.439Z,6.28
2022-12-29T04:56:00.303Z,6.13
2022-12-29T04:58:30.006Z,4.35
2022-12-29T05:01:00.019Z,5.05
2022-12-29T05:03:39.867Z,5.00
2022-12-29T05:06:14.030Z,4.45
2022-12-29T05:08:52.583Z,6.25
2022-12-29T05:11:36.195Z,5.00
2022-12-29T05:14:07.412Z,7.35
2022-12-29T05:16:37.008Z,4.95
2022-12-29T05:21:44.979Z,4.85
2022-12-29T05:24:38.832Z,4.90
2022-12-29T05:27:15.258Z,4.80
2022-12-29T05:30:11.617Z,4.80
2022-12-29T05:32:45.973Z,6.63
2022-12-29T05:35:16.894Z,7.15
2022-12-29T05:37:45.410Z,5.13
2022-12-29T05:40:20.773Z,5.03
2022-12-29T05:42:53.784Z,6.03
2022-12-29T05:45:45.740Z,6.13
2022-12-29T05:48:37.889Z,6.10
2022-12-29T05:51:37.872Z,4.38
2022-12-29T05:54:06.081Z,4.55
2022-12-29T05:56:34.048Z,3.70
2022-12-29T05:59:02.538Z,5.28
2022-12-29T06:01:31.785Z,6.97
2022-12-29T06:04:02.403Z,6.53
2022-12-29T06:06:33.103Z,4.35
2022-12-29T06:09:01.049Z,3.70
2022-12-29T06:11:32.876Z,3.42
2022-12-29T06:14:02.807Z,4.95
2022-12-29T06:16:34.616Z,3.05
2022-12-29T06:19:08.459Z,3.33
2022-12-29T06:21:44.475Z,3.00
2022-12-29T06:24:16.495Z,3.00
2022-12-29T06:26:54.537Z,3.13
2022-12-29T06:29:23.115Z,2.10
2022-12-29T06:31:52.370Z,3.55
2022-12-29T06:34:20.230Z,3.10
2022-12-29T06:36:51.329Z,3.58
2022-12-29T06:39:19.044Z,2.50
2022-12-29T06:42:05.266Z,2.78
2022-12-29T06:44:51.916Z,3.40
2022-12-29T06:47:22.712Z,2.67
2022-12-29T06:49:51.100Z,2.30
2022-12-29T06:52:25.301Z,2.00
2022-12-29T06:54:58.902Z,1.55
2022-12-29T06:57:27.684Z,2.00
2022-12-29T06:59:58.198Z,2.10
2022-12-29T07:02:37.366Z,2.10
2022-12-29T07:05:11.456Z,1.83
2022-12-29T07:07:39.729Z,1.88
2022-12-29T07:10:07.964Z,1.95
2022-12-29T07:12:40.368Z,2.03
2022-12-29T07:15:09.029Z,4.22
2022-12-29T07:17:40.111Z,2.35
2022-12-29T07:20:17.770Z,1.95
2022-12-29T07:22:59.196Z,2.40
2022-12-29T07:28:19.366Z,2.00
2022-12-29T07:30:56.730Z,1.48
2022-12-29T07:33:30.535Z,3.35
2022-12-29T07:35:59.276Z,3.13
2022-12-29T07:38:31.142Z,2.10
2022-12-29T07:41:02.811Z,1.45
2022-12-29T07:43:30.595Z,2.28
2022-12-29T07:46:55.318Z,1.58
2022-12-29T07:49:27.649Z,1.90
2022-12-29T07:52:00.796Z,1.65
2022-12-29T07:54:29.709Z,2.00
2022-12-29T07:56:59.708Z,1.38
2022-12-29T07:59:28.127Z,1.63
2022-12-29T08:01:56.009Z,1.40
2022-12-29T08:04:23.931Z,3.72
2022-12-29T08:06:54.920Z,2.08
2022-12-29T08:09:24.308Z,1.83
2022-12-29T08:11:55.214Z,1.55
2022-12-29T08:16:55.940Z,3.17
2022-12-29T08:19:23.857Z,2.67
2022-12-29T08:21:52.334Z,1.42
2022-12-29T08:24:20.128Z,2.35
2022-12-29T08:26:50.788Z,2.67
2022-12-29T08:29:18.745Z,2.58
2022-12-29T08:31:48.239Z,2.42
2022-12-29T08:34:20.425Z,1.93
2022-12-29T08:36:48.393Z,2.50
2022-12-29T08:39:19.275Z,2.00
2022-12-29T08:41:47.001Z,1.90
2022-12-29T08:44:15.081Z,1.98
2022-12-29T08:46:43.997Z,1.63
2022-12-29T08:49:11.823Z,2.25
2022-12-29T08:51:39.914Z,1.98
2022-12-29T08:54:09.845Z,2.60
2022-12-29T08:56:38.009Z,2.00
2022-12-29T08:59:15.731Z,3.00
2022-12-29T09:01:45.142Z,3.50
2022-12-29T09:04:24.860Z,3.90
2022-12-29T09:06:53.464Z,1.70
2022-12-29T09:09:22.019Z,2.28
2022-12-29T09:11:53.175Z,2.20
2022-12-29T09:14:33.067Z,2.75
2022-12-29T09:19:49.997Z,1.80
2022-12-29T09:22:23.144Z,2.08
2022-12-29T09:24:54.084Z,2.33
2022-12-29T09:27:21.984Z,1.95
2022-12-29T09:29:50.126Z,2.17
2022-12-29T09:32:23.534Z,2.55
2022-12-29T09:39:16.709Z,2.03
2022-12-29T09:42:05.989Z,2.22
2022-12-29T09:45:30.479Z,1.75
2022-12-29T09:48:08.157Z,1.77
2022-12-29T09:50:54.366Z,2.35
2022-12-29T09:53:41.298Z,1.48
2022-12-29T09:56:26.950Z,1.88
2022-12-29T09:59:35.563Z,1.77
2022-12-29T10:02:49.186Z,1.77
2022-12-29T10:05:57.865Z,1.50
2022-12-29T10:09:35.182Z,1.90
2022-12-29T10:15:28.720Z,1.30
2022-12-29T10:18:23.977Z,1.20
2022-12-29T10:21:18.611Z,1.50
2022-12-29T10:23:56.327Z,1.00
2022-12-29T10:26:40.929Z,1.52
2022-12-29T10:29:50.823Z,1.40
2022-12-29T10:32:52.255Z,2.50
2022-12-29T10:35:36.783Z,1.70
2022-12-29T10:38:56.776Z,1.15
2022-12-29T10:41:50.036Z,1.15
2022-12-29T10:44:25.349Z,1.30
2022-12-29T10:47:08.821Z,1.23
2022-12-29T10:52:30.674Z,1.75
2022-12-29T10:55:52.285Z,1.13
2022-12-29T10:58:22.920Z,1.02
2022-12-29T11:00:57.560Z,2.00
2022-12-29T11:04:03.602Z,1.75
2022-12-29T11:06:39.231Z,1.50
2022-12-29T11:09:22.286Z,1.58
2022-12-29T11:12:00.562Z,1.85
2022-12-29T11:14:36.089Z,2.28
2022-12-29T11:17:10.405Z,1.60
2022-12-29T11:19:41.137Z,1.50
2022-12-29T11:22:23.196Z,1.40
2022-12-29T11:25:07.454Z,2.35
2022-12-29T11:27:43.004Z,2.00
2022-12-29T11:30:34.051Z,1.50
2022-12-29T11:33:07.862Z,2.00
2022-12-29T11:35:45.829Z,1.40
2022-12-29T11:38:39.909Z,1.50
2022-12-29T11:41:13.919Z,1.08
2022-12-29T11:43:48.939Z,1.80
2022-12-29T11:46:32.718Z,2.17
2022-12-29T11:49:01.850Z,1.75
2022-12-29T11:51:39.221Z,1.70
2022-12-29T11:54:15.234Z,1.73
2022-12-29T11:56:44.755Z,4.25
2022-12-29T11:59:31.166Z,2.05
2022-12-29T12:02:14.749Z,1.75
2022-12-29T12:04:43.363Z,1.77
2022-12-29T12:07:23.924Z,2.72
2022-12-29T12:10:00.175Z,2.10
2022-12-29T12:12:54.403Z,1.90
2022-12-29T12:15:47.438Z,2.97
2022-12-29T12:18:43.663Z,3.83
2022-12-29T12:22:11.076Z,2.22
2022-12-29T12:25:28.386Z,1.98
2022-12-29T12:28:36.744Z,3.55
2022-12-29T12:31:25.912Z,2.38
2022-12-29T12:34:30.046Z,3.53
2022-12-29T12:37:24.475Z,3.78
2022-12-29T12:40:26.231Z,2.53
2022-12-29T12:43:20.278Z,2.97
2022-12-29T12:46:13.786Z,2.65
2022-12-29T12:49:39.890Z,4.03
2022-12-29T12:52:38.891Z,2.30
2022-12-29T12:55:55.237Z,4.20
2022-12-29T13:01:27.492Z,2.80
2022-12-29T13:04:17.245Z,3.20
2022-12-29T13:07:16.666Z,2.97
2022-12-29T13:10:05.368Z,2.65
2022-12-29T13:12:38.522Z,2.60
2022-12-29T13:15:20.410Z,2.80
2022-12-29T13:18:11.522Z,3.63
2022-12-29T13:21:20.996Z,2.67
2022-12-29T13:24:03.868Z,3.42
2022-12-29T13:26:37.409Z,3.10
2022-12-29T13:29:19.983Z,3.20
2022-12-29T13:31:51.111Z,4.68
2022-12-29T13:34:47.756Z,3.10
2022-12-29T13:37:21.678Z,2.53
2022-12-29T13:40:02.427Z,3.38
2022-12-29T13:42:31.307Z,2.72
2022-12-29T13:45:19.492Z,3.97
2022-12-29T13:48:11.148Z,3.60
2022-12-29T13:50:48.255Z,2.20
2022-12-29T13:53:42.290Z,3.50
2022-12-29T13:56:30.296Z,2.80
2022-12-29T13:59:44.370Z,2.95
2022-12-29T14:03:07.020Z,2.58
2022-12-29T14:08:25.135Z,2.53
2022-12-29T14:10:54.638Z,3.28
2022-12-29T14:13:28.559Z,3.47
2022-12-29T14:16:03.036Z,4.80
2022-12-29T14:18:34.836Z,4.35
2022-12-29T14:21:31.934Z,3.70
2022-12-29T14:24:37.503Z,3.05
2022-12-29T14:27:28.681Z,4.40
2022-12-29T14:30:58.313Z,4.78
2022-12-29T14:33:32.398Z,3.65
2022-12-29T14:36:42.437Z,3.90
2022-12-29T14:40:31.481Z,7.32
2022-12-29T14:43:01.050Z,4.93
2022-12-29T14:45:40.432Z,7.35
2022-12-29T14:48:45.165Z,10.57
2022-12-29T14:51:42.903Z,2.92
2022-12-29T14:54:33.538Z,2.67
2022-12-29T14:57:14.678Z,2.78
2022-12-29T14:59:43.728Z,2.78
2022-12-29T15:02:23.445Z,2.28
2022-12-29T15:04:59.490Z,3.17
2022-12-29T15:07:32.891Z,2.60
2022-12-29T15:10:17.976Z,3.85
2022-12-29T15:12:54.316Z,2.58
2022-12-29T15:15:26.860Z,3.45
2022-12-29T15:18:23.560Z,3.60
2022-12-29T15:21:06.267Z,3.35
2022-12-29T15:23:52.659Z,4.07
2022-12-29T15:26:46.021Z,5.57
2022-12-29T15:29:57.758Z,4.78
2022-12-29T15:32:28.722Z,2.60
2022-12-29T15:35:05.890Z,3.60
2022-12-29T15:37:39.114Z,4.15
2022-12-29T15:40:27.889Z,2.60
2022-12-29T15:42:55.590Z,3.72
2022-12-29T15:45:31.522Z,3.13
2022-12-29T15:48:01.450Z,3.25
2022-12-29T15:50:32.989Z,3.13
2022-12-29T15:53:06.690Z,3.28
2022-12-29T15:55:38.552Z,2.53
2022-12-29T15:58:23.456Z,2.67
2022-12-29T16:01:09.400Z,5.22
2022-12-29T16:03:50.826Z,5.47
2022-12-29T16:06:36.920Z,3.90
2022-12-29T16:09:22.486Z,2.95
2022-12-29T16:11:58.539Z,4.22
2022-12-29T16:14:48.844Z,3.58
2022-12-29T16:17:28.308Z,3.38
2022-12-29T16:20:04.159Z,3.03
2022-12-29T16:22:50.256Z,2.85
2022-12-29T16:25:32.365Z,2.78
2022-12-29T16:28:16.881Z,3.58
2022-12-29T16:31:19.856Z,3.88
2022-12-29T16:33:51.835Z,2.88
2022-12-29T16:36:35.939Z,4.97
2022-12-29T16:39:26.063Z,4.10
2022-12-29T16:41:57.214Z,3.17
2022-12-29T16:44:29.177Z,4.13
2022-12-29T16:47:11.076Z,4.03
2022-12-29T16:49:42.534Z,2.35
2022-12-29T16:52:51.784Z,3.60
2022-12-29T16:55:47.905Z,3.50
2022-12-29T16:59:07.497Z,3.63
2022-12-29T17:03:39.319Z,3.45
2022-12-29T17:07:08.371Z,3.85
2022-12-29T17:09:57.853Z,3.70
2022-12-29T17:12:39.136Z,2.90
2022-12-29T17:15:46.918Z,3.05
2022-12-29T17:18:55.357Z,3.55
2022-12-29T17:21:49.527Z,3.30
2022-12-29T17:24:47.269Z,2.85
2022-12-29T17:31:17.016Z,5.55
2022-12-29T17:36:58.742Z,3.22
2022-12-29T17:39:36.571Z,3.05
2022-12-29T17:45:06.422Z,3.90
2022-12-29T17:47:40.472Z,3.00
2022-12-29T17:50:16.868Z,2.85
2022-12-29T17:53:00.811Z,2.67
2022-12-29T17:55:38.952Z,3.15
2022-12-29T17:58:33.169Z,2.25
2022-12-29T18:01:04.689Z,2.95
2022-12-29T18:03:41.167Z,3.40
2022-12-29T18:06:12.397Z,2.95
2022-12-29T18:08:42.167Z,4.20
2022-12-29T18:11:28.654Z,3.33
2022-12-29T18:13:56.886Z,3.78
2022-12-29T18:16:24.854Z,2.50
2022-12-29T18:18:52.861Z,3.97
2022-12-29T18:21:25.264Z,2.60
2022-12-29T18:24:05.438Z,3.95
2022-12-29T18:26:37.912Z,2.65
2022-12-29T18:29:07.826Z,3.15
2022-12-29T18:31:39.036Z,3.13
2022-12-29T18:34:17.198Z,2.65
2022-12-29T18:36:54.037Z,3.28
2022-12-29T18:39:35.792Z,3.75
2022-12-29T18:42:09.118Z,4.50
2022-12-29T18:44:41.138Z,3.22
2022-12-29T18:47:18.178Z,3.10
2022-12-29T18:49:58.820Z,3.17
2022-12-29T18:52:39.995Z,3.35
2022-12-29T18:55:21.521Z,4.07
2022-12-29T18:57:53.404Z,3.15
2022-12-29T19:00:22.614Z,3.85
2022-12-29T19:02:53.450Z,3.63
2022-12-29T19:05:33.552Z,3.50
2022-12-29T19:08:32.495Z,3.90
2022-12-29T19:11:18.430Z,3.55
2022-12-29T19:14:00.263Z,5.05
2022-12-29T19:16:34.531Z,3.25
2022-12-29T19:19:09.437Z,4.30
2022-12-29T19:21:38.327Z,3.72
2022-12-29T19:24:18.256Z,3.95
2022-12-29T19:27:21.065Z,3.05
2022-12-29T19:32:58.161Z,3.40
2022-12-29T19:35:40.631Z,2.45
2022-12-29T19:38:18.387Z,3.20
2022-12-29T19:40:52.106Z,3.80
2022-12-29T19:43:20.899Z,3.55
2022-12-29T19:45:49.166Z,3.00
2022-12-29T19:48:25.552Z,4.32
2022-12-29T19:51:07.744Z,3.38
2022-12-29T19:53:36.402Z,3.78
2022-12-29T19:56:06.734Z,4.10
2022-12-29T19:58:45.202Z,3.88
2022-12-29T20:01:19.896Z,5.45
2022-12-29T20:03:48.841Z,3.17
2022-12-29T20:06:20.607Z,3.80
2022-12-29T20:08:56.858Z,3.58
2022-12-29T20:11:28.039Z,3.55
2022-12-29T20:13:56.443Z,3.05
2022-12-29T20:16:25.132Z,6.85
2022-12-29T20:18:57.068Z,4.28
2022-12-29T20:21:25.846Z,4.47
2022-12-29T20:23:56.779Z,3.53
2022-12-29T20:26:27.775Z,5.20
2022-12-29T20:28:58.597Z,4.07
2022-12-29T20:31:32.009Z,2.85
2022-12-29T20:34:00.327Z,4.18
2022-12-29T20:36:33.191Z,4.25
2022-12-29T20:39:12.019Z,3.80
2022-12-29T20:41:40.596Z,4.13
2022-12-29T20:44:08.639Z,5.38
2022-12-29T20:46:43.555Z,6.07
2022-12-29T20:49:12.586Z,5.05
2022-12-29T20:54:39.464Z,5.40
2022-12-29T20:57:17.912Z,3.65
2022-12-29T20:59:52.546Z,3.83
2022-12-29T21:02:44.581Z,4.93
2022-12-29T21:05:24.996Z,3.95
2022-12-29T21:10:28.144Z,4.72
2022-12-29T21:13:05.385Z,3.30
2022-12-29T21:15:39.628Z,3.03
2022-12-29T21:18:07.363Z,4.45
2022-12-29T21:20:43.264Z,3.85
2022-12-29T21:23:19.292Z,4.28
2022-12-29T21:25:46.950Z,3.30
2022-12-29T21:28:23.981Z,3.35
2022-12-29T21:30:56.910Z,3.97
2022-12-29T21:33:32.141Z,3.40
2022-12-29T21:36:09.146Z,5.65
2022-12-29T21:38:36.934Z,4.57
2022-12-29T21:41:10.179Z,3.17
2022-12-29T21:43:38.857Z,2.80
2022-12-29T21:46:09.035Z,2.90
2022-12-29T21:48:36.862Z,3.90
2022-12-29T21:51:34.614Z,2.97
2022-12-29T21:54:23.504Z,3.05
2022-12-29T21:56:58.211Z,3.28
2022-12-29T21:59:47.578Z,2.97
2022-12-29T22:02:46.123Z,5.03
2022-12-29T22:05:45.766Z,4.57
2022-12-29T22:08:32.996Z,3.63
2022-12-29T22:11:19.555Z,3.35
2022-12-29T22:13:47.356Z,3.53
2022-12-29T22:16:15.945Z,3.22
2022-12-29T22:18:58.703Z,4.65
2022-12-29T22:21:26.583Z,3.93
2022-12-29T22:24:02.302Z,3.30
2022-12-29T22:26:30.349Z,4.17
2022-12-29T22:28:58.530Z,3.65
2022-12-29T22:31:30.921Z,3.78
2022-12-29T22:34:05.584Z,3.92
2022-12-29T22:36:33.749Z,3.60
2022-12-29T22:39:04.587Z,3.70
2022-12-29T22:41:32.584Z,5.03
2022-12-29T22:44:02.327Z,5.15
2022-12-29T22:46:32.649Z,4.05
2022-12-29T22:49:00.383Z,3.85
2022-12-29T22:51:28.335Z,4.60
2022-12-29T22:53:56.278Z,5.10
2022-12-29T22:56:27.463Z,3.03
2022-12-29T22:59:00.894Z,5.35
2022-12-29T23:01:30.530Z,3.95
2022-12-29T23:04:25.962Z,3.83
2022-12-29T23:06:47.563Z,3.90
2022-12-29T23:09:29.502Z,3.10
2022-12-29T23:11:59.520Z,4.32
2022-12-29T23:14:27.458Z,4.28
2022-12-29T23:16:56.541Z,3.38
2022-12-29T23:19:24.500Z,3.13
2022-12-29T23:21:52.349Z,3.88
2022-12-29T23:24:27.394Z,5.88
2022-12-29T23:26:55.143Z,2.92
2022-12-29T23:29:22.994Z,4.22
2022-12-29T23:31:50.963Z,3.22
2022-12-29T23:34:22.762Z,3.08
2022-12-29T23:36:51.146Z,4.82
2022-12-29T23:39:24.513Z,5.22
2022-12-29T23:41:56.363Z,3.90
2022-12-29T23:44:23.989Z,3.55
2022-12-29T23:46:51.724Z,3.40
2022-12-29T23:49:19.513Z,3.83
2022-12-29T23:51:47.980Z,4.53
2022-12-29T23:54:15.646Z,3.45
2022-12-29T23:56:48.230Z,4.47
2022-12-29T23:59:16.537Z,3.83
